RJNY  Shizuhama  Airport

Japan

Add Bookmark
Status
Operational
Latitude Longitude
34° 48' 46" N 138° 17' 52" E
34.812801 138.298004
Local (DST + 9) UTC (GMT + 9)
Mar 6, 2015 05:10 Mar 5, 2015 20:10
Sunrise-Sunset Local UTC
Begin Civil Twilight 05:43 20:43
Sunrise 06:08 21:08
Sunset 05:47 08:47
End Civil Twilight 06:12 09:12

Current Weather

METAR Observed VFR
RJNY 051150Z 10008KT 9999 FEW020 BKN050 BKN/// 10/03 Q1018 Thu, Mar 5, 2015 @ 11:50 UTC
(8 Hours, 20 Minutes ago)
Visual Flight Rules
Wind Visibility Clouds Conditions
100° at 8 knots (15 kph) 10 km or more
  • Few at 2,000' AGL
  • Broken at 5,000' AGL
  • No significant weather
Temperatures Readings Precipitation
Current Temp 10°C (50°F)
Dewpoint 3°C (37°F)
Humidity 62%
Altimeter 30.06"Hg
Sea Level Pressure 1018mb
Field Elevation 32.81'
None Recorded

Additional weather within a 92.6km radius of RJNY

Map ICAO Location
rjns 10.2km W (259°)

24 Hour Weather History

Loading
-

24 Hour Weather Graphs

Loading
-

CheckWX.com is intended as a tool to help pilots better visualize weather data. It is not intended as a substitute for an official weather briefing obtained from a Flight Service Station. CheckWX.com does not meet the FAA requirements for an official pre-flight weather briefing. Therefore, it's important that pilots still call and obtain an official FSS pre-flight weather briefing.